Time;durP1;ratioP1;P1;durP2;ratioP2;P2;SDS_P1;SDS_P2;PMS_P1;PMS_P2;Temp;Humidity;BMP_temperature;BMP_pressure;BME280_temperature;BME280_humidity;BME280_pressure;Samples;Min_cycle;Max_cycle;Signal;HPM_P1;HPM_P2
2024/01/11 00:01:37;;;;;;;43.37;26.70;;;;;;;-1.23;100.00;100711.72;5052744;28;20447;-67
2024/01/11 00:04:04;;;;;;;45.07;25.60;;;;;;;-1.18;100.00;100711.44;5032156;28;20518;-67
2024/01/11 00:06:31;;;;;;;40.33;25.03;;;;;;;-1.25;100.00;100704.91;5032519;28;20475;-66
2024/01/11 00:08:59;;;;;;;41.70;23.90;;;;;;;-1.26;100.00;100698.03;5032224;28;20927;-67
2024/01/11 00:11:26;;;;;;;41.23;25.90;;;;;;;-1.14;100.00;100702.53;5032498;28;20502;-67
2024/01/11 00:13:53;;;;;;;46.97;25.80;;;;;;;-0.96;100.00;100702.22;5032221;28;20486;-67
2024/01/11 00:16:19;;;;;;;43.40;27.13;;;;;;;-0.84;100.00;100711.06;5032116;28;20952;-66
2024/01/11 00:18:46;;;;;;;56.53;30.40;;;;;;;-0.74;100.00;100706.94;5032333;28;20436;-66
2024/01/11 00:21:13;;;;;;;61.07;32.97;;;;;;;-0.75;100.00;100706.13;5032027;28;20498;-67
2024/01/11 00:23:39;;;;;;;62.30;31.97;;;;;;;-0.72;100.00;100699.88;5031947;28;20451;-66
2024/01/11 00:26:07;;;;;;;69.13;32.87;;;;;;;-0.60;100.00;100699.09;5032282;28;20599;-67
2024/01/11 00:28:34;;;;;;;57.93;33.23;;;;;;;-0.49;99.93;100692.28;5031784;28;20991;-66
2024/01/11 00:31:01;;;;;;;57.97;30.93;;;;;;;-0.41;99.42;100691.78;5032421;28;20472;-67
2024/01/11 00:33:27;;;;;;;64.37;34.07;;;;;;;-0.39;98.71;100687.31;5032184;28;20505;-66
2024/01/11 00:35:54;;;;;;;57.73;31.70;;;;;;;-0.33;97.72;100682.53;5031934;28;20444;-65
2024/01/11 00:38:21;;;;;;;57.07;31.90;;;;;;;-0.35;97.14;100680.97;5046602;28;20914;-65
2024/01/11 00:40:48;;;;;;;63.80;34.47;;;;;;;-0.39;96.68;100676.88;5052023;28;20511;-66
2024/01/11 00:43:16;;;;;;;60.20;32.30;;;;;;;-0.36;96.45;100674.06;5051539;28;20873;-66
2024/01/11 00:45:42;;;;;;;59.67;31.23;;;;;;;-0.33;96.39;100666.88;5051568;28;20431;-66
2024/01/11 00:48:09;;;;;;;61.23;32.27;;;;;;;-0.27;96.52;100660.41;5051786;28;20576;-66
2024/01/11 00:50:36;;;;;;;56.70;30.97;;;;;;;-0.23;95.95;100651.44;5051852;28;20658;-66
2024/01/11 00:53:03;;;;;;;58.83;31.93;;;;;;;-0.22;95.51;100651.34;5051518;28;20439;-66
2024/01/11 00:55:29;;;;;;;54.20;31.87;;;;;;;-0.24;94.50;100644.56;5051871;28;20494;-66
2024/01/11 00:57:56;;;;;;;60.90;32.03;;;;;;;-0.20;94.75;100646.03;5051787;28;20500;-66
2024/01/11 01:00:24;;;;;;;49.47;30.67;;;;;;;-0.20;93.86;100639.03;5051732;28;20443;-67
2024/01/11 01:02:51;;;;;;;56.20;29.97;;;;;;;-0.20;94.12;100641.63;5051666;28;20446;-66
2024/01/11 01:05:17;;;;;;;48.57;29.20;;;;;;;-0.17;94.50;100638.84;5051372;28;20497;-66
2024/01/11 01:07:45;;;;;;;46.80;28.17;;;;;;;-0.15;94.23;100634.34;5051271;28;21049;-66
2024/01/11 01:10:12;;;;;;;49.90;29.03;;;;;;;-0.15;93.68;100644.78;5051242;28;20477;-66
2024/01/11 01:12:39;;;;;;;48.73;29.17;;;;;;;-0.14;93.36;100637.78;5051608;28;20439;-66
2024/01/11 01:15:07;;;;;;;47.77;28.60;;;;;;;-0.18;93.08;100629.34;5051557;28;20501;-67
2024/01/11 01:17:35;;;;;;;58.20;28.50;;;;;;;-0.16;93.16;100631.84;5051147;28;20762;-66
2024/01/11 01:20:03;;;;;;;47.63;27.37;;;;;;;-0.17;92.95;100627.53;5051581;28;20485;-65
2024/01/11 01:22:29;;;;;;;42.73;27.33;;;;;;;-0.19;92.41;100622.41;5051145;28;20902;-67
2024/01/11 01:24:56;;;;;;;50.63;27.17;;;;;;;-0.20;92.42;100622.53;5051514;28;20451;-67
2024/01/11 01:27:23;;;;;;;40.73;26.33;;;;;;;-0.23;92.50;100626.19;5050966;28;21059;-68
2024/01/11 01:29:50;;;;;;;42.60;26.17;;;;;;;-0.22;92.40;100619.19;5051141;28;20541;-66
2024/01/11 01:32:16;;;;;;;41.20;26.50;;;;;;;-0.26;92.27;100617.72;5051464;28;20496;-67
2024/01/11 01:34:45;;;;;;;44.13;26.67;;;;;;;-0.26;92.49;100617.72;5051403;28;20522;-66
2024/01/11 01:37:10;;;;;;;43.70;26.53;;;;;;;-0.27;92.97;100610.81;5050975;28;20999;-66
2024/01/11 01:39:38;;;;;;;46.50;26.40;;;;;;;-0.32;92.13;100610.28;5050996;28;20443;-66
2024/01/11 01:42:05;;;;;;;42.77;25.27;;;;;;;-0.35;93.59;100606.13;5051068;28;20282;-66
2024/01/11 01:44:32;;;;;;;50.03;25.33;;;;;;;-0.41;93.89;100603.88;5050966;28;20961;-66
2024/01/11 01:46:59;;;;;;;43.77;25.63;;;;;;;-0.53;93.60;100601.25;5052816;28;20563;-67
2024/01/11 01:49:26;;;;;;;53.80;29.30;;;;;;;-0.62;93.32;100604.44;5055089;28;20500;-66
2024/01/11 01:51:54;;;;;;;52.77;29.63;;;;;;;-0.66;93.71;100595.13;5054825;28;20442;-66
2024/01/11 01:54:23;;;;;;;44.10;26.80;;;;;;;-0.67;94.07;100599.53;5055020;28;20763;-66
2024/01/11 01:56:51;;;;;;;44.60;25.63;;;;;;;-0.79;94.19;100589.03;5054942;28;20446;-66
2024/01/11 01:59:18;;;;;;;42.47;24.83;;;;;;;-0.86;94.79;100579.94;5054886;28;20500;-66
2024/01/11 02:01:45;;;;;;;42.67;25.10;;;;;;;-0.74;94.78;100581.75;5054899;28;20499;-66
2024/01/11 02:04:12;;;;;;;40.97;24.80;;;;;;;-0.76;94.44;100583.63;5054816;28;20496;-66
2024/01/11 02:06:39;;;;;;;41.07;24.40;;;;;;;-0.79;93.39;100594.25;5054876;28;20442;-66
2024/01/11 02:09:08;;;;;;;42.73;25.40;;;;;;;-0.80;93.42;100583.00;5054665;28;20474;-65
2024/01/11 02:11:35;;;;;;;46.27;25.90;;;;;;;-0.81;93.26;100581.31;5054724;28;20493;-66
2024/01/11 02:14:03;;;;;;;40.70;24.63;;;;;;;-0.77;93.73;100577.56;5054577;28;20809;-65
2024/01/11 02:16:30;;;;;;;44.07;24.33;;;;;;;-0.82;93.75;100578.78;5053939;28;20500;-65
2024/01/11 02:18:56;;;;;;;45.53;23.57;;;;;;;-0.82;93.90;100576.19;5054578;28;20450;-65
2024/01/11 02:21:25;;;;;;;38.70;22.37;;;;;;;-0.87;93.80;100570.44;5054331;28;20438;-65
2024/01/11 02:24:03;;;;;;;37.63;23.53;;;;;;;-0.94;93.78;100571.78;5054178;28;20447;-67
2024/01/11 02:26:30;;;;;;;43.57;23.30;;;;;;;-0.92;93.93;100565.53;5054498;28;20442;-66
2024/01/11 02:28:57;;;;;;;33.83;21.60;;;;;;;-0.86;93.98;100566.91;5053889;28;20540;-66
2024/01/11 02:31:25;;;;;;;37.23;21.03;;;;;;;-0.80;93.38;100561.28;5054095;28;21008;-66
2024/01/11 02:33:53;;;;;;;32.30;19.97;;;;;;;-0.79;93.04;100557.72;5054331;28;20965;-66
2024/01/11 02:36:20;;;;;;;31.23;19.77;;;;;;;-0.75;92.33;100559.22;5053814;28;20859;-66
2024/01/11 02:38:48;;;;;;;29.80;19.57;;;;;;;-0.73;92.03;100567.78;5054072;28;20447;-65
2024/01/11 02:41:17;;;;;;;32.57;19.33;;;;;;;-0.73;92.14;100567.78;5053901;28;20500;-66
2024/01/11 02:43:47;;;;;;;27.80;18.33;;;;;;;-0.73;92.11;100567.78;5054269;28;20496;-65
2024/01/11 02:46:15;;;;;;;25.47;17.50;;;;;;;-0.75;91.68;100559.22;5053790;28;20871;-65
2024/01/11 02:48:41;;;;;;;31.60;18.60;;;;;;;-0.81;91.70;100570.06;5053584;28;20573;-67
2024/01/11 02:51:08;;;;;;;25.63;18.20;;;;;;;-0.90;92.33;100562.81;5053833;28;20979;-66
2024/01/11 02:53:35;;;;;;;30.67;19.83;;;;;;;-0.90;92.10;100570.66;5053891;28;20492;-66
2024/01/11 02:56:01;;;;;;;31.93;18.37;;;;;;;-0.87;92.02;100565.22;5053932;28;20516;-67
2024/01/11 02:58:29;;;;;;;26.63;17.63;;;;;;;-0.88;91.88;100566.16;5052699;28;20504;-67
2024/01/11 03:00:56;;;;;;;38.10;18.73;;;;;;;-0.87;91.67;100573.03;5053758;28;20446;-66
2024/01/11 03:03:23;;;;;;;32.37;19.87;;;;;;;-0.90;91.40;100565.44;5053498;28;20816;-67
2024/01/11 03:05:49;;;;;;;30.90;18.27;;;;;;;-0.88;91.33;100564.41;5053425;28;20884;-67
2024/01/11 03:08:16;;;;;;;28.73;17.63;;;;;;;-0.86;91.61;100561.69;5053668;28;20536;-67
2024/01/11 03:10:43;;;;;;;30.53;17.47;;;;;;;-0.89;91.36;100561.88;5053666;28;20938;-66
2024/01/11 03:13:10;;;;;;;29.73;18.43;;;;;;;-0.92;91.52;100562.06;5053365;28;20933;-66
2024/01/11 03:15:38;;;;;;;38.00;19.83;;;;;;;-0.88;90.92;100559.19;5053296;28;20439;-66
2024/01/11 03:18:05;;;;;;;32.10;17.37;;;;;;;-0.86;90.63;100559.09;5053281;28;20508;-66
2024/01/11 03:20:32;;;;;;;29.57;18.33;;;;;;;-0.89;90.12;100554.06;5052157;28;20536;-67
2024/01/11 03:22:58;;;;;;;25.63;17.00;;;;;;;-0.95;90.23;100547.47;5053175;28;20946;-67
2024/01/11 03:25:25;;;;;;;32.83;17.47;;;;;;;-0.95;90.60;100551.81;5053363;28;20514;-67
2024/01/11 03:27:52;;;;;;;32.70;19.93;;;;;;;-1.00;90.73;100548.69;5053474;28;20474;-67
2024/01/11 03:30:18;;;;;;;32.00;17.90;;;;;;;-1.09;90.58;100536.25;5052700;28;20483;-67
2024/01/11 03:32:46;;;;;;;23.87;17.60;;;;;;;-0.97;90.52;100553.72;5053369;28;20503;-66
2024/01/11 03:35:13;;;;;;;26.40;16.10;;;;;;;-0.96;90.13;100553.63;5053061;28;20435;-67
2024/01/11 03:37:40;;;;;;;28.97;16.23;;;;;;;-1.10;89.74;100532.78;5053193;28;20508;-67
2024/01/11 03:40:08;;;;;;;35.97;17.37;;;;;;;-1.03;89.83;100544.50;5053062;28;20439;-65
2024/01/11 03:42:34;;;;;;;28.90;17.47;;;;;;;-1.04;89.76;100547.22;5052722;28;20792;-68
2024/01/11 03:45:01;;;;;;;23.50;16.20;;;;;;;-1.03;89.79;100543.66;5052933;28;20447;-66
2024/01/11 03:47:28;;;;;;;31.67;16.67;;;;;;;-1.07;89.82;100542.19;5052290;28;20443;-66
2024/01/11 03:49:56;;;;;;;22.30;16.97;;;;;;;-1.09;90.23;100538.84;5052960;28;20442;-65
2024/01/11 03:52:23;;;;;;;27.87;18.07;;;;;;;-1.13;89.90;100534.75;5052547;28;20431;-65
2024/01/11 03:54:49;;;;;;;31.70;19.10;;;;;;;-1.10;90.25;100542.41;5052914;28;20442;-65
2024/01/11 03:57:17;;;;;;;36.00;18.27;;;;;;;-1.11;90.14;100536.34;5052879;28;20500;-66
2024/01/11 03:59:44;;;;;;;37.47;20.87;;;;;;;-1.14;90.46;100533.91;5052190;28;20447;-66
2024/01/11 04:02:11;;;;;;;31.70;19.20;;;;;;;-1.16;90.13;100529.72;5052702;28;20473;-66
2024/01/11 04:04:38;;;;;;;32.20;19.10;;;;;;;-1.17;90.22;100520.25;5052271;28;20454;-67
2024/01/11 04:07:06;;;;;;;46.33;20.57;;;;;;;-1.19;90.15;100524.72;5052300;28;20439;-67
2024/01/11 04:09:33;;;;;;;37.63;18.97;;;;;;;-1.17;90.14;100520.25;5052123;28;20532;-67
2024/01/11 04:12:00;;;;;;;29.97;19.17;;;;;;;-1.20;90.22;100510.00;5052430;28;20506;-67
2024/01/11 04:14:26;;;;;;;31.20;20.13;;;;;;;-1.20;90.50;100516.06;5052178;28;20508;-67
2024/01/11 04:16:53;;;;;;;34.37;19.43;;;;;;;-1.17;90.39;100510.66;5052547;28;20446;-66
2024/01/11 04:19:20;;;;;;;30.63;19.77;;;;;;;-1.17;90.22;100515.03;5051991;28;20824;-67
2024/01/11 04:21:47;;;;;;;32.83;19.73;;;;;;;-1.21;90.17;100513.56;5052466;28;20435;-66
2024/01/11 04:24:15;;;;;;;37.57;19.50;;;;;;;-1.31;90.07;100517.69;5052122;28;20447;-67
2024/01/11 04:26:41;;;;;;;34.43;19.57;;;;;;;-1.43;90.09;100513.25;5051918;28;20493;-66
2024/01/11 04:29:08;;;;;;;32.83;19.73;;;;;;;-1.57;90.24;100508.03;5051863;28;20544;-67
2024/01/11 04:31:35;;;;;;;37.30;21.23;;;;;;;-1.65;90.97;100518.94;5051878;28;20928;-66
2024/01/11 04:34:00;;;;;;;32.63;20.27;;;;;;;-1.74;92.07;100513.44;5052239;28;20500;-66
2024/01/11 04:36:27;;;;;;;33.70;20.70;;;;;;;-1.87;92.36;100507.34;5052299;28;20459;-66
2024/01/11 04:38:54;;;;;;;31.83;21.10;;;;;;;-1.97;92.46;100511.41;5051753;28;20692;-67
2024/01/11 04:41:22;;;;;;;32.00;22.17;;;;;;;-2.10;93.60;100515.69;5051826;28;20443;-66
2024/01/11 04:43:49;;;;;;;38.00;22.40;;;;;;;-2.24;93.64;100513.06;5051929;28;20568;-66
2024/01/11 04:46:17;;;;;;;45.87;22.40;;;;;;;-2.47;94.16;100503.16;5051751;28;20442;-67
2024/01/11 04:48:44;;;;;;;44.40;22.27;;;;;;;-2.54;94.44;100509.66;5051638;28;20908;-67
2024/01/11 04:51:11;;;;;;;49.43;24.03;;;;;;;-2.53;95.84;100503.53;5051886;28;20438;-67
2024/01/11 04:53:39;;;;;;;38.80;22.37;;;;;;;-2.52;96.10;100507.81;5031861;28;20881;-66
2024/01/11 04:56:07;;;;;;;34.13;22.03;;;;;;;-2.45;96.26;100504.75;5032089;28;20489;-67
2024/01/11 04:58:36;;;;;;;31.80;22.53;;;;;;;-2.39;96.03;100498.34;5032065;28;20440;-66
2024/01/11 05:01:03;;;;;;;36.13;23.03;;;;;;;-2.35;95.72;100499.84;5031773;28;20505;-66
2024/01/11 05:03:31;;;;;;;39.47;22.43;;;;;;;-2.31;96.26;100496.13;5036233;28;20979;-66
2024/01/11 05:05:58;;;;;;;31.83;21.90;;;;;;;-2.36;95.59;100495.59;5044348;28;20465;-66
2024/01/11 05:08:26;;;;;;;45.77;21.07;;;;;;;-2.26;95.97;100494.09;5043668;28;20480;-67
2024/01/11 05:10:53;;;;;;;39.40;21.90;;;;;;;-2.23;95.36;100491.31;5049539;28;20449;-67
2024/01/11 05:13:20;;;;;;;40.70;20.70;;;;;;;-2.27;95.42;100487.22;5050827;28;20450;-67
2024/01/11 05:15:48;;;;;;;43.80;21.93;;;;;;;-2.26;95.04;100494.09;5039466;28;20455;-65
2024/01/11 05:18:15;;;;;;;33.73;20.40;;;;;;;-2.22;95.36;100490.38;5042467;28;20446;-66
2024/01/11 05:20:42;;;;;;;34.30;21.37;;;;;;;-2.21;95.13;100479.88;5050872;28;20492;-66
2024/01/11 05:23:09;;;;;;;43.70;22.37;;;;;;;-2.23;94.47;100488.72;5054337;28;20430;-65
2024/01/11 05:25:36;;;;;;;39.57;24.27;;;;;;;-2.31;94.52;100486.59;5054023;28;20811;-66
2024/01/11 05:28:03;;;;;;;46.43;24.73;;;;;;;-2.39;94.47;100485.34;5054709;28;20434;-66
2024/01/11 05:30:30;;;;;;;44.57;25.23;;;;;;;-2.41;94.50;100490.63;5054728;28;21056;-66
2024/01/11 05:32:58;;;;;;;38.83;23.30;;;;;;;-2.49;94.60;100485.06;5054381;28;20453;-66
2024/01/11 05:35:27;;;;;;;37.80;21.93;;;;;;;-2.57;94.14;100478.66;5054915;28;20544;-67
2024/01/11 05:37:54;;;;;;;44.23;25.37;;;;;;;-2.69;94.76;100468.97;5043222;28;20448;-66
2024/01/11 05:40:21;;;;;;;54.80;26.27;;;;;;;-2.77;95.04;100476.34;5034562;28;20523;-66
2024/01/11 05:42:48;;;;;;;55.93;26.60;;;;;;;-2.82;95.24;100473.19;5034596;28;20447;-67
2024/01/11 05:45:16;;;;;;;46.27;26.13;;;;;;;-2.76;95.83;100465.03;5034310;28;20502;-66
2024/01/11 05:47:43;;;;;;;55.70;25.77;;;;;;;-2.70;96.09;100467.28;5034283;28;20466;-66
2024/01/11 05:50:12;;;;;;;46.73;24.57;;;;;;;-2.73;96.57;100472.66;5034431;28;20475;-66
2024/01/11 05:52:38;;;;;;;50.47;26.50;;;;;;;-2.73;96.06;100470.06;5034090;28;20436;-66
2024/01/11 05:55:06;;;;;;;63.67;30.53;;;;;;;-2.73;96.28;100470.06;5034366;28;20947;-66
2024/01/11 05:57:32;;;;;;;65.87;33.07;;;;;;;-2.64;96.32;100466.91;5034444;28;20535;-66
2024/01/11 05:59:59;;;;;;;49.43;29.03;;;;;;;-2.53;96.30;100467.13;5034201;28;20995;-66
2024/01/11 06:02:26;;;;;;;57.60;29.60;;;;;;;-2.63;96.05;100464.22;5034116;28;20443;-65
2024/01/11 06:04:52;;;;;;;46.33;27.63;;;;;;;-2.54;96.29;100462.84;5033933;28;20828;-66
2024/01/11 06:07:20;;;;;;;68.07;31.03;;;;;;;-2.41;97.27;100469.00;5034019;28;20525;-65
2024/01/11 06:09:47;;;;;;;94.80;45.83;;;;;;;-2.27;97.70;100467.25;5033879;28;20476;-65
2024/01/11 06:12:14;;;;;;;112.07;49.67;;;;;;;-2.13;97.08;100466.41;5033921;28;20435;-65
2024/01/11 06:14:41;;;;;;;89.07;42.87;;;;;;;-2.03;96.93;100462.34;5033572;28;20881;-67
2024/01/11 06:17:10;;;;;;;69.37;34.77;;;;;;;-1.93;95.59;100466.03;5033930;28;20447;-67
2024/01/11 06:19:37;;;;;;;66.60;31.93;;;;;;;-1.76;95.48;100458.06;5033909;28;20534;-66
2024/01/11 06:22:04;;;;;;;62.73;32.63;;;;;;;-1.67;94.43;100457.47;5033574;28;20957;-65
2024/01/11 06:24:32;;;;;;;40.97;25.80;;;;;;;-1.49;94.34;100457.16;5036908;28;20451;-66
2024/01/11 06:26:59;;;;;;;54.97;25.77;;;;;;;-1.41;93.37;100459.25;5035542;28;20440;-66
2024/01/11 06:29:26;;;;;;;47.63;24.53;;;;;;;-1.35;92.77;100453.69;5041554;28;20487;-67
2024/01/11 06:31:52;;;;;;;29.53;21.50;;;;;;;-1.46;91.65;100453.50;5033068;28;20851;-65
2024/01/11 06:34:19;;;;;;;44.87;24.67;;;;;;;-1.37;91.89;100455.53;5034052;28;20444;-66
2024/01/11 06:36:46;;;;;;;39.10;26.50;;;;;;;-1.29;91.47;100453.28;5035316;28;20830;-66
2024/01/11 06:39:13;;;;;;;43.90;24.93;;;;;;;-1.28;91.50;100440.16;5047025;28;20982;-65
2024/01/11 06:41:40;;;;;;;55.00;26.87;;;;;;;-1.18;91.71;100448.22;5044678;28;21063;-66
2024/01/11 06:44:07;;;;;;;68.90;34.43;;;;;;;-1.06;91.19;100450.03;5041431;28;20478;-69
2024/01/11 06:46:35;;;;;;;83.07;40.53;;;;;;;-1.01;90.90;100450.56;5039066;28;20931;-67
2024/01/11 06:49:03;;;;;;;54.33;30.80;;;;;;;-0.93;90.68;100456.94;5033600;28;20479;-68
2024/01/11 06:51:30;;;;;;;50.20;27.43;;;;;;;-0.68;91.79;100453.56;5036840;28;20443;-68
2024/01/11 06:53:56;;;;;;;47.60;27.90;;;;;;;-0.23;90.69;100437.41;5050226;28;20512;-69
2024/01/11 06:56:23;;;;;;;55.80;27.63;;;;;;;-0.01;89.01;100446.25;5053542;28;20500;-69
2024/01/11 06:58:52;;;;;;;41.43;25.97;;;;;;;0.19;87.62;100460.53;5053177;28;21202;-68
2024/01/11 07:01:18;;;;;;;40.40;24.43;;;;;;;0.34;86.46;100464.69;5053372;28;20509;-67
2024/01/11 07:03:45;;;;;;;36.83;22.87;;;;;;;0.66;84.27;100463.25;5053222;28;20443;-67
2024/01/11 07:06:12;;;;;;;40.27;22.87;;;;;;;0.89;83.23;100459.78;5053054;28;20460;-66
2024/01/11 07:08:39;;;;;;;49.77;24.53;;;;;;;1.22;82.10;100473.03;5032857;28;20456;-69
2024/01/11 07:11:07;;;;;;;39.10;22.17;;;;;;;1.63;79.37;100485.66;5032782;28;20810;-69
2024/01/11 07:13:34;;;;;;;37.90;22.63;;;;;;;2.10;77.34;100481.09;5052234;28;20443;-69
2024/01/11 07:16:03;;;;;;;23.33;17.40;;;;;;;2.54;75.78;100491.56;5052624;28;21020;-69
2024/01/11 07:18:30;;;;;;;26.50;18.10;;;;;;;2.89;73.54;100497.44;5053208;28;20474;-69
2024/01/11 07:20:57;;;;;;;31.97;17.00;;;;;;;3.22;74.31;100484.22;5053397;28;20496;-68
2024/01/11 07:23:24;;;;;;;31.53;20.13;;;;;;;3.61;69.65;100499.31;5052735;28;20508;-70
2024/01/11 07:25:51;;;;;;;26.55;19.13;;;;;;;3.67;72.43;100475.16;5052012;28;20435;-63
2024/01/11 07:28:19;;;;;;;33.50;19.52;;;;;;;3.58;69.56;100489.06;5051965;28;20474;-65
2024/01/11 07:30:46;;;;;;;30.60;19.07;;;;;;;4.03;67.19;100487.81;5049995;28;20236;-66
2024/01/11 07:33:14;;;;;;;22.30;17.07;;;;;;;3.98;66.95;100484.75;5052855;28;20211;-64
2024/01/11 07:35:41;;;;;;;29.67;13.60;;;;;;;4.05;68.16;100485.88;5042036;28;20297;-67
2024/01/11 07:38:08;;;;;;;19.47;13.57;;;;;;;4.49;66.86;100475.00;5050350;28;20193;-65
2024/01/11 07:40:34;;;;;;;30.50;16.90;;;;;;;4.60;64.78;100476.69;5052410;28;20197;-66
2024/01/11 07:43:01;;;;;;;20.73;14.80;;;;;;;4.49;64.33;100469.75;5065023;28;20691;-67
2024/01/11 07:45:28;;;;;;;22.47;14.70;;;;;;;4.31;65.35;100462.63;5056515;28;20258;-67
2024/01/11 07:47:54;;;;;;;19.80;13.27;;;;;;;4.08;65.69;100453.25;5063720;28;20729;-69
2024/01/11 07:50:22;;;;;;;17.13;12.37;;;;;;;4.05;67.89;100445.63;5072337;28;20559;-67
2024/01/11 07:52:49;;;;;;;21.00;14.43;;;;;;;4.00;65.33;100442.59;5066083;28;20258;-68
2024/01/11 07:55:16;;;;;;;59.50;20.47;;;;;;;3.96;66.67;100444.63;5052225;28;20668;-67
2024/01/11 07:57:43;;;;;;;37.30;16.77;;;;;;;3.82;66.60;100442.34;5061581;28;20227;-67
2024/01/11 08:00:10;;;;;;;26.73;17.30;;;;;;;3.77;67.15;100435.81;5072503;28;20192;-68
2024/01/11 08:02:37;;;;;;;25.23;15.27;;;;;;;3.79;67.11;100436.50;5071579;28;20649;-68
2024/01/11 08:05:04;;;;;;;17.53;14.70;;;;;;;3.78;67.75;100435.69;5049117;28;20275;-65
2024/01/11 08:07:32;;;;;;;17.57;14.17;;;;;;;3.60;68.60;100431.97;5039805;28;20508;-66
2024/01/11 08:09:59;;;;;;;21.13;14.80;;;;;;;3.77;68.75;100427.94;5055818;28;20895;-65
2024/01/11 08:12:26;;;;;;;21.07;15.43;;;;;;;3.80;67.78;100432.94;5051865;28;20442;-64
2024/01/11 08:14:53;;;;;;;23.13;14.57;;;;;;;3.81;68.52;100427.56;5051601;28;20303;-65
2024/01/11 08:17:20;;;;;;;24.63;16.83;;;;;;;3.86;67.95;100425.34;5056377;28;20188;-65
2024/01/11 08:19:47;;;;;;;56.33;19.53;;;;;;;3.95;68.02;100421.94;5071383;28;20204;-65
2024/01/11 08:22:13;;;;;;;20.30;13.63;;;;;;;4.14;67.88;100414.13;5071345;28;20187;-65
2024/01/11 08:24:42;;;;;;;18.60;12.87;;;;;;;4.48;65.08;100420.75;5071441;28;20554;-63
2024/01/11 08:27:08;;;;;;;14.30;12.83;;;;;;;4.86;63.82;100420.81;5071357;28;20184;-63
2024/01/11 08:29:35;;;;;;;14.10;12.37;;;;;;;5.20;63.93;100415.97;5071471;28;20284;-64
2024/01/11 08:32:04;;;;;;;18.00;12.50;;;;;;;5.15;63.95;100405.84;5070850;28;20687;-66
2024/01/11 08:34:31;;;;;;;23.73;12.60;;;;;;;5.48;61.22;100417.75;5057997;28;20210;-64
2024/01/11 08:36:58;;;;;;;26.33;15.27;;;;;;;5.40;62.24;100410.53;5034952;28;20304;-65
2024/01/11 08:39:24;;;;;;;38.90;13.53;;;;;;;5.35;64.64;100411.91;5051387;28;20673;-64
2024/01/11 08:41:53;;;;;;;16.37;12.70;;;;;;;5.11;63.66;100407.09;5051004;28;20682;-64
2024/01/11 08:44:19;;;;;;;18.10;13.80;;;;;;;5.03;64.75;100404.31;5055125;28;20203;-64
2024/01/11 08:46:46;;;;;;;23.10;17.10;;;;;;;5.37;65.11;100402.09;5051318;28;20268;-63
2024/01/11 08:49:13;;;;;;;15.97;13.10;;;;;;;5.90;63.63;100403.22;5051027;28;20207;-64
2024/01/11 08:51:40;;;;;;;13.23;11.87;;;;;;;6.31;62.46;100396.66;5051297;28;20627;-64
2024/01/11 08:54:09;;;;;;;18.07;11.33;;;;;;;6.78;60.32;100395.56;5051390;28;20192;-64
2024/01/11 08:56:36;;;;;;;27.07;12.07;;;;;;;7.17;58.43;100391.59;5050429;28;20656;-62
2024/01/11 08:59:04;;;;;;;17.67;12.63;;;;;;;7.43;55.92;100387.22;5051120;28;20291;-63
2024/01/11 09:01:32;;;;;;;14.63;12.00;;;;;;;7.47;58.00;100380.63;5051227;28;20193;-62
2024/01/11 09:03:59;;;;;;;18.33;12.00;;;;;;;7.76;57.32;100362.63;5051027;28;20195;-61
2024/01/11 09:06:25;;;;;;;13.70;11.47;;;;;;;7.88;54.41;100374.63;5032309;28;20253;-61
2024/01/11 09:08:52;;;;;;;24.93;12.93;;;;;;;8.02;56.37;100363.44;5046166;28;20660;-62
2024/01/11 09:11:19;;;;;;;17.57;12.37;;;;;;;7.90;54.76;100367.34;5050899;28;20297;-61
2024/01/11 09:13:46;;;;;;;17.27;13.50;;;;;;;7.74;55.15;100346.94;5050688;28;20249;-61
2024/01/11 09:16:16;;;;;;;57.73;14.43;;;;;;;7.60;55.67;100346.69;5050646;28;20243;-64
2024/01/11 09:18:43;;;;;;;13.77;11.03;;;;;;;7.45;55.03;100346.44;5050638;28;20258;-60
2024/01/11 09:21:11;;;;;;;13.03;11.07;;;;;;;7.10;55.83;100338.56;5051162;28;20192;-62
2024/01/11 09:23:38;;;;;;;21.07;11.70;;;;;;;6.67;57.93;100330.59;5050468;28;20234;-61
2024/01/11 09:26:05;;;;;;;10.20;9.23;;;;;;;6.84;57.71;100324.47;5050687;28;20200;-62
2024/01/11 09:28:32;;;;;;;21.23;12.63;;;;;;;7.11;57.62;100318.25;5061727;28;20634;-61
2024/01/11 09:30:59;;;;;;;16.10;13.20;;;;;;;7.24;57.74;100318.69;5070376;28;20227;-62
2024/01/11 09:33:28;;;;;;;15.23;11.77;;;;;;;7.06;58.46;100304.69;5070612;28;20269;-65
2024/01/11 09:35:55;;;;;;;23.37;11.87;;;;;;;6.84;58.89;100308.63;5070962;28;20230;-61
2024/01/11 09:38:22;;;;;;;11.53;10.33;;;;;;;6.72;59.48;100301.94;5055502;28;20294;-61
2024/01/11 09:41:00;;;;;;;13.27;9.90;;;;;;;6.96;59.46;100296.84;5047693;28;20204;-61
2024/01/11 09:43:28;;;;;;;13.83;11.40;;;;;;;7.38;58.38;100289.03;5048436;28;20238;-62
2024/01/11 09:45:56;;;;;;;19.20;12.03;;;;;;;7.63;56.50;100293.50;5053834;28;20193;-61
2024/01/11 09:48:24;;;;;;;16.30;11.53;;;;;;;7.90;55.72;100285.34;5050549;28;20721;-62
2024/01/11 09:50:55;;;;;;;20.50;13.73;;;;;;;7.99;54.62;100279.06;5050693;28;20224;-61
2024/01/11 09:53:24;;;;;;;14.13;12.63;;;;;;;7.69;55.82;100269.06;5050110;28;20185;-62
2024/01/11 09:55:51;;;;;;;12.17;10.97;;;;;;;7.74;56.16;100258.81;5050156;28;20200;-61
2024/01/11 09:58:19;;;;;;;17.83;10.40;;;;;;;7.51;55.43;100258.56;5050480;28;20196;-61
2024/01/11 10:00:47;;;;;;;10.93;9.83;;;;;;;7.38;56.00;100255.53;5050928;28;20247;-62
2024/01/11 10:03:15;;;;;;;11.27;9.77;;;;;;;7.15;54.96;100251.75;5050157;28;20188;-62
2024/01/11 10:05:43;;;;;;;13.33;9.83;;;;;;;6.95;56.27;100239.75;5038399;28;20197;-61
2024/01/11 10:08:12;;;;;;;11.43;9.87;;;;;;;6.90;57.42;100235.91;5044765;28;20192;-62
2024/01/11 10:10:39;;;;;;;11.13;9.67;;;;;;;7.02;57.46;100234.66;5074097;28;20223;-61
2024/01/11 10:13:06;;;;;;;26.17;10.63;;;;;;;7.26;56.76;100232.19;5064349;28;20265;-63
2024/01/11 10:15:33;;;;;;;38.73;10.57;;;;;;;7.64;55.79;100229.03;5033481;28;20269;-60
2024/01/11 10:18:00;;;;;;;12.23;9.67;;;;;;;7.83;55.57;100226.13;5036555;28;20575;-60
2024/01/11 10:20:29;;;;;;;14.07;9.70;;;;;;;8.05;54.40;100221.06;5059644;28;20587;-61
2024/01/11 10:22:57;;;;;;;25.90;9.90;;;;;;;8.12;52.11;100218.59;5068368;28;20274;-62
2024/01/11 10:25:26;;;;;;;17.70;9.70;;;;;;;8.08;54.13;100209.34;5073779;28;20195;-60
2024/01/11 10:27:52;;;;;;;9.90;8.90;;;;;;;7.97;53.67;100207.00;5068873;28;20188;-61
2024/01/11 10:30:22;;;;;;;10.20;9.23;;;;;;;7.82;54.09;100198.03;5053188;28;20238;-61
2024/01/11 10:32:49;;;;;;;14.77;9.57;;;;;;;7.74;54.27;100198.84;5053533;28;20197;-62
2024/01/11 10:35:17;;;;;;;19.57;12.10;;;;;;;7.78;53.30;100178.19;5052660;28;20195;-61
2024/01/11 10:37:45;;;;;;;16.63;10.97;;;;;;;7.91;53.68;100175.91;5060827;28;20595;-61
2024/01/11 10:40:13;;;;;;;10.90;9.80;;;;;;;7.83;53.96;100178.53;5053538;28;20207;-61
2024/01/11 10:42:43;;;;;;;10.43;9.00;;;;;;;7.66;54.61;100174.19;5053723;28;20668;-61
2024/01/11 10:45:16;;;;;;;8.77;7.97;;;;;;;7.63;54.66;100177.97;5057670;28;20223;-63
2024/01/11 10:47:51;;;;;;;16.93;9.23;;;;;;;7.51;54.96;100146.72;5050784;28;20235;-62
2024/01/11 10:50:19;;;;;;;9.80;8.87;;;;;;;7.91;54.07;100165.31;5052972;28;20250;-62
2024/01/11 10:52:55;;;;;;;10.43;8.90;;;;;;;7.92;55.24;100146.63;5052942;28;20196;-62
2024/01/11 10:55:23;;;;;;;9.97;9.10;;;;;;;8.04;54.46;100152.47;5053307;28;20181;-62
2024/01/11 10:57:52;;;;;;;10.07;8.73;;;;;;;8.12;53.08;100142.69;5052795;28;20913;-61
2024/01/11 11:00:19;;;;;;;15.30;9.17;;;;;;;7.91;55.06;100133.56;5053137;28;20200;-62
2024/01/11 11:02:47;;;;;;;9.20;8.30;;;;;;;7.89;53.55;100140.84;5052985;28;20200;-62
2024/01/11 11:05:16;;;;;;;14.60;8.80;;;;;;;7.95;53.09;100140.19;5044464;28;20228;-62
2024/01/11 11:07:44;;;;;;;10.93;9.73;;;;;;;8.04;53.97;100133.94;5032722;28;20197;-62
2024/01/11 11:10:12;;;;;;;9.27;8.17;;;;;;;8.27;52.63;100124.38;5032542;28;20225;-63
2024/01/11 11:12:40;;;;;;;16.20;10.80;;;;;;;8.39;51.91;100123.03;5033246;28;20200;-61